Time;durP1;ratioP1;P1;durP2;ratioP2;P2;SDS_P1;SDS_P2;PMS_P1;PMS_P2;Temp;Humidity;BMP_temperature;BMP_pressure;BME280_temperature;BME280_humidity;BME280_pressure;Samples;Min_cycle;Max_cycle;Signal;HPM_P1;HPM_P2
2021/08/19 00:00:36;;;;;;;5.50;2.70;;;;;;;15.83;67.35;99973.63;92942;1206;93942;-64
2021/08/19 00:02:44;;;;;;;4.00;3.00;;;;;;;15.85;67.41;99971.41;92909;1206;79562;-63
2021/08/19 00:04:52;;;;;;;4.90;2.90;;;;;;;15.86;67.57;99968.55;92925;1206;80043;-64
2021/08/19 00:07:00;;;;;;;4.10;2.80;;;;;;;15.86;67.60;99972.20;92907;1206;99659;-64
2021/08/19 00:09:08;;;;;;;4.70;2.70;;;;;;;15.85;67.61;99968.30;92935;1206;87363;-63
2021/08/19 00:11:15;;;;;;;5.90;3.10;;;;;;;15.86;67.71;99965.99;92810;1208;94867;-65
2021/08/19 00:13:23;;;;;;;5.70;2.90;;;;;;;15.87;67.78;99975.38;92940;1206;78044;-66
2021/08/19 00:15:31;;;;;;;4.90;3.10;;;;;;;15.86;67.77;99968.00;92899;1206;81413;-66
2021/08/19 00:17:39;;;;;;;6.20;4.10;;;;;;;15.86;67.93;99970.48;92886;1206;97781;-66
2021/08/19 00:19:47;;;;;;;5.20;2.90;;;;;;;15.85;67.87;99964.70;92950;1206;86689;-64
2021/08/19 00:21:55;;;;;;;3.50;2.80;;;;;;;15.86;67.96;99964.40;92890;1206;93245;-63
2021/08/19 00:24:03;;;;;;;3.90;3.00;;;;;;;15.87;67.94;99965.41;92914;1206;81416;-64
2021/08/19 00:26:11;;;;;;;4.10;2.80;;;;;;;15.87;67.87;99961.87;92967;1206;81682;-65
2021/08/19 00:28:18;;;;;;;4.60;2.90;;;;;;;15.86;67.94;99956.40;92913;1206;99628;-65
2021/08/19 00:30:26;;;;;;;3.90;2.80;;;;;;;15.85;68.08;99960.13;92940;1206;88422;-64
2021/08/19 00:32:36;;;;;;;4.40;2.60;;;;;;;15.84;68.10;99961.63;92902;1206;94405;-64
2021/08/19 00:34:44;;;;;;;5.40;2.80;;;;;;;15.82;68.24;99958.25;92951;1206;77979;-65
2021/08/19 00:36:53;;;;;;;3.70;3.00;;;;;;;15.82;68.16;99957.27;92830;1208;80617;-64
2021/08/19 00:39:05;;;;;;;3.80;2.70;;;;;;;15.81;68.25;99959.36;92824;1208;99529;-64
2021/08/19 00:41:14;;;;;;;4.90;2.70;;;;;;;15.80;68.38;99964.08;92846;1209;87659;-66
2021/08/19 00:43:22;;;;;;;6.10;2.90;;;;;;;15.82;68.39;99962.50;92926;1206;93577;-66
2021/08/19 00:45:31;;;;;;;4.00;2.50;;;;;;;15.84;68.39;99959.66;92948;1206;79668;-66
2021/08/19 00:47:40;;;;;;;4.40;2.50;;;;;;;15.85;68.43;99964.83;92922;1206;81937;-66
2021/08/19 00:49:48;;;;;;;3.90;2.50;;;;;;;15.83;68.54;99961.81;92931;1206;98258;-65
2021/08/19 00:51:58;;;;;;;3.80;2.60;;;;;;;15.82;68.57;99963.42;92936;1206;87766;-65
2021/08/19 00:54:09;;;;;;;4.00;2.70;;;;;;;15.80;68.66;99963.28;92916;1206;94562;-64
2021/08/19 00:56:17;;;;;;;6.20;2.90;;;;;;;15.79;68.68;99961.83;92998;1206;78468;-65
2021/08/19 00:58:25;;;;;;;3.70;2.80;;;;;;;15.80;68.75;99965.33;92934;1206;81003;-64
2021/08/19 01:00:33;;;;;;;5.20;2.40;;;;;;;15.79;68.81;99964.00;92926;1206;98886;-65
2021/08/19 01:02:43;;;;;;;4.90;3.10;;;;;;;15.79;68.93;99967.86;92945;1206;87720;-65
2021/08/19 01:04:51;;;;;;;3.20;2.30;;;;;;;15.77;68.99;99967.66;92957;1206;93960;-65
2021/08/19 01:06:59;;;;;;;5.20;2.60;;;;;;;15.77;68.95;99968.94;92933;1206;80472;-65
2021/08/19 01:09:07;;;;;;;4.20;2.80;;;;;;;15.77;69.08;99970.16;92920;1206;82301;-64
2021/08/19 01:11:15;;;;;;;3.50;2.50;;;;;;;15.80;69.07;99966.84;92942;1206;99497;-66
2021/08/19 01:13:22;;;;;;;3.70;2.50;;;;;;;15.80;69.19;99966.04;92913;1206;86867;-66
2021/08/19 01:15:30;;;;;;;4.80;2.50;;;;;;;15.78;69.27;99966.59;92897;1206;93900;-66
2021/08/19 01:17:38;;;;;;;4.30;2.60;;;;;;;15.77;69.29;99965.25;92924;1206;80416;-66
2021/08/19 01:19:47;;;;;;;3.20;2.30;;;;;;;15.74;69.25;99963.97;92915;1206;81830;-66
2021/08/19 01:21:56;;;;;;;4.30;2.60;;;;;;;15.69;69.37;99965.50;92906;1200;98071;-66
2021/08/19 01:24:04;;;;;;;3.10;2.30;;;;;;;15.66;69.40;99964.80;92912;1206;86885;-66
2021/08/19 01:26:15;;;;;;;5.10;2.90;;;;;;;15.63;69.47;99967.94;92932;1206;93951;-64
2021/08/19 01:28:26;;;;;;;3.20;2.60;;;;;;;15.59;69.64;99971.21;92941;1206;79694;-64
2021/08/19 01:30:33;;;;;;;3.50;2.50;;;;;;;15.55;69.68;99972.42;92925;1206;82051;-66
2021/08/19 01:32:41;;;;;;;5.20;2.80;;;;;;;15.51;69.85;99974.42;92918;1206;99391;-66
2021/08/19 01:34:51;;;;;;;3.50;2.50;;;;;;;15.47;69.82;99973.29;92944;1206;87730;-65
2021/08/19 01:36:59;;;;;;;3.80;2.60;;;;;;;15.44;69.86;99971.55;92929;1206;93957;-66
2021/08/19 01:39:07;;;;;;;3.10;2.40;;;;;;;15.41;70.03;99970.38;92919;1206;80360;-66
2021/08/19 01:41:15;;;;;;;3.60;2.60;;;;;;;15.38;70.27;99969.36;92909;1206;81444;-66
2021/08/19 01:43:24;;;;;;;3.60;2.60;;;;;;;15.36;70.32;99970.11;92910;1206;99580;-66
2021/08/19 01:45:32;;;;;;;3.80;2.50;;;;;;;15.34;70.41;99969.64;92931;1206;88025;-66
2021/08/19 01:47:41;;;;;;;3.60;2.40;;;;;;;15.29;70.38;99966.61;92913;1206;94404;-66
2021/08/19 01:49:51;;;;;;;3.80;2.40;;;;;;;15.29;70.53;99968.45;92937;1206;78245;-66
2021/08/19 01:52:00;;;;;;;8.20;3.00;;;;;;;15.29;70.66;99967.61;92918;1206;82712;-66
2021/08/19 01:54:08;;;;;;;3.80;2.70;;;;;;;15.30;70.78;99967.09;92945;1206;98980;-66
2021/08/19 01:56:16;;;;;;;4.20;2.60;;;;;;;15.27;70.92;99967.34;92931;1206;87887;-64
2021/08/19 01:58:24;;;;;;;3.80;2.40;;;;;;;15.27;70.83;99965.90;92912;1206;94066;-64
2021/08/19 02:00:34;;;;;;;5.10;2.80;;;;;;;15.25;70.99;99963.02;92955;1206;79134;-65
2021/08/19 02:02:43;;;;;;;4.30;2.50;;;;;;;15.25;71.06;99968.30;92929;1206;80471;-64
2021/08/19 02:04:50;;;;;;;3.70;2.80;;;;;;;15.23;71.10;99969.06;92923;1206;96995;-65
2021/08/19 02:06:58;;;;;;;5.10;3.10;;;;;;;15.22;71.22;99967.16;92929;1206;87739;-64
2021/08/19 02:09:06;;;;;;;3.60;2.70;;;;;;;15.19;71.21;99967.62;92912;1206;93078;-64
2021/08/19 02:11:14;;;;;;;3.50;2.50;;;;;;;15.16;71.27;99978.88;92908;1206;81517;-65
2021/08/19 02:13:22;;;;;;;5.20;2.80;;;;;;;15.15;71.32;99976.14;92938;1201;80260;-66
2021/08/19 02:15:30;;;;;;;3.70;2.60;;;;;;;15.12;71.44;99977.30;92918;1206;98668;-65
2021/08/19 02:17:38;;;;;;;4.10;2.70;;;;;;;15.11;71.52;99975.13;92931;1206;88162;-66
2021/08/19 02:19:46;;;;;;;3.70;2.70;;;;;;;15.11;71.64;99975.89;92919;1209;93894;-65
2021/08/19 02:21:53;;;;;;;3.80;2.40;;;;;;;15.11;71.72;99972.54;92911;1206;79747;-66
2021/08/19 02:24:01;;;;;;;3.70;2.60;;;;;;;15.13;71.93;99969.59;92946;1206;81248;-65
2021/08/19 02:26:09;;;;;;;4.90;2.60;;;;;;;15.16;71.94;99970.92;92907;1206;98613;-64
2021/08/19 02:28:17;;;;;;;3.90;2.50;;;;;;;15.20;72.01;99975.31;92911;1206;87741;-64
2021/08/19 02:30:25;;;;;;;3.90;2.80;;;;;;;15.22;72.04;99974.04;92904;1206;94216;-65
2021/08/19 02:32:32;;;;;;;3.60;2.40;;;;;;;15.25;72.03;99977.20;92902;1206;81274;-66
2021/08/19 02:34:40;;;;;;;2.90;2.30;;;;;;;15.28;72.19;99975.02;92953;1202;80588;-65
2021/08/19 02:36:50;;;;;;;4.40;2.70;;;;;;;15.30;72.10;99976.17;92915;1206;99176;-66
2021/08/19 02:38:58;;;;;;;4.90;2.70;;;;;;;15.32;72.17;99973.17;92934;1206;86139;-65
2021/08/19 02:41:05;;;;;;;3.70;2.60;;;;;;;15.30;72.08;99969.27;92942;1206;94118;-64
2021/08/19 02:43:16;;;;;;;5.20;2.70;;;;;;;15.27;72.18;99971.45;92905;1206;81537;-64
2021/08/19 02:45:24;;;;;;;4.40;2.60;;;;;;;15.25;72.18;99970.27;92929;1206;81251;-64
2021/08/19 02:47:31;;;;;;;4.10;2.60;;;;;;;15.23;72.21;99974.56;92937;1207;100183;-64
2021/08/19 02:49:39;;;;;;;5.30;2.70;;;;;;;15.22;72.34;99974.86;92842;1209;87853;-64
2021/08/19 02:51:47;;;;;;;4.60;2.30;;;;;;;15.21;72.29;99977.48;92954;1206;94340;-66
2021/08/19 02:53:54;;;;;;;3.20;2.20;;;;;;;15.18;72.39;99975.34;92926;1206;80797;-66
2021/08/19 02:56:02;;;;;;;4.90;2.60;;;;;;;15.14;72.88;99978.06;92928;1206;81509;-66
2021/08/19 02:58:10;;;;;;;3.20;2.30;;;;;;;15.13;72.63;99982.39;92918;1206;99990;-65
2021/08/19 03:00:19;;;;;;;4.30;2.40;;;;;;;15.15;72.61;99979.56;92935;1206;87216;-64
2021/08/19 03:02:26;;;;;;;4.90;2.60;;;;;;;15.13;72.77;99978.41;92927;1206;92832;-64
2021/08/19 03:04:34;;;;;;;5.00;2.50;;;;;;;15.16;72.79;99982.45;92928;1206;80189;-64
2021/08/19 03:06:42;;;;;;;5.30;2.50;;;;;;;15.14;72.79;99977.70;92946;1200;80552;-65
2021/08/19 03:08:49;;;;;;;4.90;2.90;;;;;;;15.13;72.83;99977.92;92910;1206;99544;-65
2021/08/19 03:10:57;;;;;;;4.20;2.80;;;;;;;15.11;72.81;99977.02;92949;1206;88196;-63
2021/08/19 03:13:04;;;;;;;4.00;2.80;;;;;;;15.04;73.04;99981.34;92905;1206;93715;-64
2021/08/19 03:15:14;;;;;;;5.80;2.40;;;;;;;14.96;73.03;99984.38;92946;1206;81991;-65
2021/08/19 03:17:21;;;;;;;3.80;2.90;;;;;;;14.95;73.03;99985.92;92945;1200;81130;-65
2021/08/19 03:19:29;;;;;;;3.80;2.80;;;;;;;14.95;73.09;99986.96;92825;1208;99495;-66
2021/08/19 03:21:37;;;;;;;4.20;2.40;;;;;;;14.93;73.18;99988.00;92916;1206;87579;-67
2021/08/19 03:23:45;;;;;;;3.70;2.40;;;;;;;14.89;73.19;99983.15;92903;1206;93384;-66
2021/08/19 03:25:53;;;;;;;3.90;2.60;;;;;;;14.85;73.26;99985.30;92929;1206;79944;-66
2021/08/19 03:28:03;;;;;;;3.60;2.30;;;;;;;14.79;73.49;99991.17;92917;1207;80645;-66
2021/08/19 03:30:13;;;;;;;4.90;2.60;;;;;;;14.74;73.61;99988.42;92951;1206;99909;-64
2021/08/19 03:32:20;;;;;;;4.60;2.60;;;;;;;14.75;73.80;99988.71;92943;1206;88401;-64
2021/08/19 03:34:28;;;;;;;3.00;2.30;;;;;;;14.74;73.78;99985.70;92894;1206;94496;-64
2021/08/19 03:36:36;;;;;;;4.80;2.60;;;;;;;14.70;73.81;99984.23;92891;1206;79796;-66
2021/08/19 03:38:46;;;;;;;3.10;2.40;;;;;;;14.70;73.82;99983.04;92946;1210;82191;-66
2021/08/19 03:40:54;;;;;;;4.10;2.40;;;;;;;14.71;73.95;99983.70;92894;1206;99901;-64
2021/08/19 03:43:01;;;;;;;5.20;2.70;;;;;;;14.71;73.90;99985.94;92924;1206;88272;-64
2021/08/19 03:45:15;;;;;;;4.20;2.60;;;;;;;14.71;73.96;99989.27;92905;1206;94234;-66
2021/08/19 03:47:23;;;;;;;5.40;2.60;;;;;;;14.72;73.90;99987.70;92891;1206;80827;-66
2021/08/19 03:49:33;;;;;;;3.70;2.30;;;;;;;14.72;73.97;99986.94;92897;1206;81198;-66
2021/08/19 03:51:41;;;;;;;3.10;2.30;;;;;;;14.73;74.00;99985.94;92926;1206;99059;-64
2021/08/19 03:53:53;;;;;;;3.00;2.60;;;;;;;14.72;74.06;99985.22;92934;1206;87478;-64
2021/08/19 03:56:04;;;;;;;4.20;2.50;;;;;;;14.70;74.14;99979.52;92920;1206;94348;-66
2021/08/19 03:58:11;;;;;;;4.30;2.10;;;;;;;14.70;74.21;99979.14;92922;1207;81468;-65
2021/08/19 04:00:20;;;;;;;3.80;2.40;;;;;;;14.69;74.28;99980.70;92940;1206;80733;-63
2021/08/19 04:02:28;;;;;;;3.90;2.50;;;;;;;14.74;74.24;99978.02;92927;1207;99101;-64
2021/08/19 04:04:38;;;;;;;5.30;2.80;;;;;;;14.75;74.37;99979.27;92932;1206;87530;-64
2021/08/19 04:06:46;;;;;;;4.00;2.30;;;;;;;14.79;74.38;99977.45;92901;1206;92991;-65
2021/08/19 04:08:53;;;;;;;4.90;2.60;;;;;;;14.84;74.59;99974.52;92903;1206;82034;-65
2021/08/19 04:11:04;;;;;;;3.10;2.30;;;;;;;14.91;74.36;99976.83;92939;1206;80615;-65
2021/08/19 04:13:11;;;;;;;4.70;2.40;;;;;;;14.96;74.27;99973.95;92939;1206;98335;-65
2021/08/19 04:15:19;;;;;;;4.90;2.70;;;;;;;15.03;74.31;99978.00;92925;1206;87750;-63
2021/08/19 04:17:26;;;;;;;3.80;2.60;;;;;;;15.06;74.27;99980.55;92890;1200;93017;-63
2021/08/19 04:19:35;;;;;;;3.40;2.60;;;;;;;15.11;74.28;99975.80;92923;1209;81380;-63
2021/08/19 04:21:42;;;;;;;5.10;3.10;;;;;;;15.17;74.24;99974.94;92941;1206;81586;-66
2021/08/19 04:23:49;;;;;;;4.00;2.70;;;;;;;15.24;74.27;99975.39;92925;1206;99623;-66
2021/08/19 04:25:57;;;;;;;3.80;2.40;;;;;;;15.30;74.21;99970.27;92809;1208;86670;-64
2021/08/19 04:28:06;;;;;;;3.50;2.60;;;;;;;15.27;74.27;99969.44;92912;1206;94507;-64
2021/08/19 04:30:14;;;;;;;3.20;2.80;;;;;;;15.33;74.19;99967.39;92949;1206;80792;-66
2021/08/19 04:32:22;;;;;;;3.90;2.70;;;;;;;15.38;74.25;99965.09;92917;1206;81616;-66
2021/08/19 04:34:30;;;;;;;4.90;2.60;;;;;;;15.49;74.29;99965.39;92948;1206;99606;-66
2021/08/19 04:36:40;;;;;;;5.00;2.80;;;;;;;15.63;74.14;99962.44;92923;1206;87901;-66
2021/08/19 04:38:48;;;;;;;5.30;3.40;;;;;;;15.86;73.95;99964.61;92891;1206;93034;-67
2021/08/19 04:40:56;;;;;;;4.80;3.00;;;;;;;16.38;73.99;99963.30;92942;1206;80207;-64
2021/08/19 04:43:06;;;;;;;3.90;2.70;;;;;;;17.75;73.77;99959.36;92917;1206;81839;-64
2021/08/19 04:45:15;;;;;;;4.40;2.50;;;;;;;19.25;72.27;99960.96;92919;1206;98200;-65
2021/08/19 04:47:25;;;;;;;4.70;2.50;;;;;;;20.53;70.23;99954.05;92911;1206;88639;-64
2021/08/19 04:49:35;;;;;;;3.70;2.60;;;;;;;21.36;68.39;99957.80;92914;1206;94148;-63
2021/08/19 04:51:42;;;;;;;4.10;2.10;;;;;;;22.30;66.53;99962.95;92935;1206;78719;-64
2021/08/19 04:53:52;;;;;;;3.70;2.30;;;;;;;22.93;64.99;99964.66;92924;1206;80571;-64
2021/08/19 04:56:00;;;;;;;6.40;2.00;;;;;;;23.56;63.57;99966.05;92934;1206;98958;-65
2021/08/19 04:58:09;;;;;;;2.50;2.00;;;;;;;24.28;62.11;99966.58;92928;1209;88279;-66
2021/08/19 05:00:20;;;;;;;2.60;2.00;;;;;;;24.71;60.58;99963.58;92925;1206;94809;-64
2021/08/19 05:02:27;;;;;;;4.70;2.20;;;;;;;25.36;58.74;99969.11;92770;1209;78509;-65
2021/08/19 05:04:36;;;;;;;4.80;2.40;;;;;;;25.89;57.65;99960.73;92906;1206;82633;-64
2021/08/19 05:06:44;;;;;;;8.60;2.30;;;;;;;26.64;55.85;99959.64;92944;1206;100244;-64
2021/08/19 05:08:51;;;;;;;2.60;2.00;;;;;;;27.27;54.54;99959.10;92920;1206;88146;-65
2021/08/19 05:10:59;;;;;;;4.90;2.10;;;;;;;27.89;53.12;99957.23;92914;1206;94668;-66
2021/08/19 05:13:09;;;;;;;3.30;2.10;;;;;;;27.91;51.78;99952.69;92937;1206;79738;-66
2021/08/19 05:15:17;;;;;;;3.50;2.30;;;;;;;27.11;51.47;99948.45;92960;1206;82560;-65
2021/08/19 05:17:24;;;;;;;2.40;1.90;;;;;;;25.87;51.63;99946.35;92931;1206;102054;-66
2021/08/19 05:19:33;;;;;;;2.90;2.10;;;;;;;25.02;52.13;99947.98;92948;1206;87978;-66
2021/08/19 05:21:40;;;;;;;3.00;2.10;;;;;;;24.48;52.64;99950.77;92922;1206;92304;-65
2021/08/19 05:23:48;;;;;;;2.70;2.00;;;;;;;24.21;53.17;99955.27;92903;1206;79640;-64
2021/08/19 05:25:55;;;;;;;4.20;2.00;;;;;;;24.16;53.05;99956.46;92848;1209;79703;-66
2021/08/19 05:28:03;;;;;;;4.60;2.30;;;;;;;24.04;53.30;99963.34;92923;1206;100248;-66
2021/08/19 05:30:12;;;;;;;2.80;2.10;;;;;;;23.57;53.17;99969.19;92962;1206;87257;-66
2021/08/19 05:32:20;;;;;;;5.50;2.40;;;;;;;23.00;53.78;99969.59;92927;1209;94255;-66
2021/08/19 05:34:28;;;;;;;3.20;2.10;;;;;;;22.45;54.36;99967.95;92906;1206;78445;-66
2021/08/19 05:36:35;;;;;;;3.40;2.50;;;;;;;21.80;55.05;99966.83;92918;1206;81512;-64
2021/08/19 05:38:43;;;;;;;4.20;2.10;;;;;;;21.26;55.85;99966.75;92944;1206;99518;-64
2021/08/19 05:40:51;;;;;;;2.60;1.90;;;;;;;20.95;56.58;99963.52;92948;1206;88511;-65
2021/08/19 05:43:02;;;;;;;4.40;2.30;;;;;;;20.72;57.20;99960.91;92900;1206;92701;-66
2021/08/19 05:45:11;;;;;;;4.50;2.10;;;;;;;20.45;57.63;99957.98;92948;1206;78041;-64
2021/08/19 05:47:19;;;;;;;2.30;2.00;;;;;;;20.22;57.94;99960.31;92966;1200;80972;-64
2021/08/19 05:49:26;;;;;;;3.00;2.20;;;;;;;20.04;58.64;99962.23;92906;1206;98572;-64
2021/08/19 05:51:34;;;;;;;4.20;2.90;;;;;;;19.99;58.94;99960.55;92953;1206;86982;-64
2021/08/19 05:53:42;;;;;;;5.40;3.20;;;;;;;19.89;59.58;99962.27;92901;1206;93664;-64
2021/08/19 05:55:49;;;;;;;3.80;2.90;;;;;;;19.91;60.02;99961.46;92918;1206;79940;-65
2021/08/19 05:58:00;;;;;;;4.00;2.50;;;;;;;20.08;60.10;99961.67;92912;1206;82082;-64
2021/08/19 06:00:10;;;;;;;3.00;2.40;;;;;;;20.29;60.37;99959.77;92934;1206;100166;-65
2021/08/19 06:02:18;;;;;;;3.30;2.10;;;;;;;20.46;60.27;99957.86;92962;1206;88024;-66
2021/08/19 06:04:25;;;;;;;3.60;2.10;;;;;;;20.67;60.47;99957.87;92905;1207;94149;-66
2021/08/19 06:06:33;;;;;;;3.70;2.20;;;;;;;20.96;60.23;99958.08;92927;1206;79051;-64
2021/08/19 06:08:41;;;;;;;3.90;2.10;;;;;;;20.96;59.74;99956.81;92912;1199;81333;-64
2021/08/19 06:10:48;;;;;;;5.10;2.20;;;;;;;20.75;59.80;99956.00;92911;1206;99228;-64
2021/08/19 06:12:56;;;;;;;6.00;2.50;;;;;;;20.58;60.02;99962.16;92912;1206;87353;-64
2021/08/19 06:15:04;;;;;;;3.60;2.30;;;;;;;20.42;60.30;99964.20;92907;1206;93408;-65
2021/08/19 06:17:11;;;;;;;2.50;2.10;;;;;;;20.24;60.26;99961.64;92904;1206;79377;-65
2021/08/19 06:19:19;;;;;;;3.50;2.10;;;;;;;20.17;60.65;99958.94;92925;1200;80495;-66
2021/08/19 06:21:27;;;;;;;2.10;1.90;;;;;;;20.10;60.84;99953.84;92920;1206;100811;-64
2021/08/19 06:23:37;;;;;;;5.00;2.00;;;;;;;20.06;61.08;99954.08;92928;1206;85309;-72
2021/08/19 06:25:45;;;;;;;3.00;2.50;;;;;;;20.05;61.22;99952.91;92929;1206;94568;-64
2021/08/19 06:27:54;;;;;;;3.50;2.10;;;;;;;20.01;61.16;99948.11;92882;1206;79616;-64
2021/08/19 06:30:01;;;;;;;4.00;2.30;;;;;;;19.93;61.44;99949.65;92937;1206;80783;-65
2021/08/19 06:32:10;;;;;;;3.40;1.80;;;;;;;19.85;61.40;99950.66;92930;1206;98987;-64
2021/08/19 06:34:18;;;;;;;2.70;1.90;;;;;;;19.68;61.63;99959.88;92859;1208;86782;-64
2021/08/19 06:36:25;;;;;;;4.60;2.20;;;;;;;19.51;61.73;99964.04;92937;1206;93302;-64
2021/08/19 06:38:33;;;;;;;3.60;2.30;;;;;;;19.48;61.83;99967.67;92915;1206;77649;-64
2021/08/19 06:40:40;;;;;;;3.10;2.20;;;;;;;19.60;62.18;99960.46;92947;1206;80264;-65
2021/08/19 06:42:48;;;;;;;3.50;2.30;;;;;;;19.85;62.36;99960.92;92909;1206;99028;-65
2021/08/19 06:44:55;;;;;;;5.00;2.10;;;;;;;20.16;62.47;99954.65;92939;1206;87278;-64
2021/08/19 06:47:03;;;;;;;6.00;3.50;;;;;;;20.46;62.39;99957.32;92903;1206;93114;-64
2021/08/19 06:49:11;;;;;;;3.40;2.00;;;;;;;20.66;62.07;99960.02;92917;1206;79502;-64
2021/08/19 06:51:18;;;;;;;6.10;2.00;;;;;;;20.91;62.18;99962.78;92963;1206;80828;-64
2021/08/19 06:53:26;;;;;;;3.90;2.90;;;;;;;21.04;61.67;99959.39;92920;1206;100047;-64
2021/08/19 06:55:33;;;;;;;3.80;2.30;;;;;;;21.08;61.17;99956.00;92946;1206;86650;-66
2021/08/19 06:57:41;;;;;;;5.10;2.40;;;;;;;21.23;61.00;99956.84;92914;1206;93222;-66
2021/08/19 06:59:49;;;;;;;2.90;2.00;;;;;;;21.50;61.13;99949.67;92911;1206;77818;-65
2021/08/19 07:01:56;;;;;;;3.00;2.20;;;;;;;21.96;60.90;99950.19;92923;1206;81356;-66
2021/08/19 07:04:04;;;;;;;5.30;2.40;;;;;;;22.34;60.37;99951.49;92905;1206;100167;-67
2021/08/19 07:06:15;;;;;;;3.60;2.10;;;;;;;22.71;59.98;99950.41;92901;1206;86736;-66
2021/08/19 07:08:23;;;;;;;2.50;2.10;;;;;;;23.11;59.53;99954.17;92922;1199;93152;-67
2021/08/19 07:10:31;;;;;;;2.80;1.90;;;;;;;23.57;59.02;99955.68;92909;1206;79055;-66
2021/08/19 07:12:39;;;;;;;3.50;2.10;;;;;;;23.91;58.35;99956.26;92927;1206;81513;-66
2021/08/19 07:14:46;;;;;;;4.20;2.20;;;;;;;24.04;57.55;99958.20;92921;1206;99961;-67
2021/08/19 07:16:54;;;;;;;5.10;2.20;;;;;;;24.15;57.07;99954.84;92940;1206;86829;-68
2021/08/19 07:19:02;;;;;;;4.30;2.30;;;;;;;24.27;56.47;99941.81;92908;1200;93971;-67
2021/08/19 07:21:09;;;;;;;5.20;2.10;;;;;;;24.53;56.29;99945.31;92902;1206;78538;-67
2021/08/19 07:23:17;;;;;;;2.20;1.70;;;;;;;24.65;55.53;99939.04;92923;1206;82395;-67
2021/08/19 07:25:25;;;;;;;3.00;1.80;;;;;;;24.84;55.27;99940.23;92937;1206;99495;-66
2021/08/19 07:27:33;;;;;;;3.00;2.00;;;;;;;25.18;54.94;99939.75;92921;1206;87074;-66
2021/08/19 07:29:41;;;;;;;4.30;1.70;;;;;;;25.33;54.30;99940.13;92926;1206;93325;-66
2021/08/19 07:31:48;;;;;;;5.10;2.10;;;;;;;25.36;53.93;99939.75;92907;1206;78742;-66
2021/08/19 07:33:56;;;;;;;2.50;2.10;;;;;;;25.24;53.49;99940.95;92913;1206;80985;-66
2021/08/19 07:36:04;;;;;;;3.40;2.20;;;;;;;25.07;53.37;99942.98;92960;1206;98889;-68
2021/08/19 07:38:15;;;;;;;5.30;2.00;;;;;;;25.00;53.34;99938.55;92906;1206;87729;-67
2021/08/19 07:40:24;;;;;;;2.90;1.90;;;;;;;24.87;53.34;99942.47;92924;1206;94566;-67
2021/08/19 07:42:32;;;;;;;3.50;2.10;;;;;;;24.61;53.26;99948.21;92894;1206;79721;-67
2021/08/19 07:44:39;;;;;;;2.50;1.80;;;;;;;24.31;53.42;99953.64;92915;1206;82748;-67
2021/08/19 07:46:47;;;;;;;2.60;1.90;;;;;;;24.28;53.47;99954.22;92923;1206;100139;-67
2021/08/19 07:48:56;;;;;;;2.50;2.00;;;;;;;24.74;53.39;99954.10;92916;1206;87921;-67
2021/08/19 07:51:04;;;;;;;2.40;1.90;;;;;;;25.15;53.08;99949.09;92930;1206;93674;-67
2021/08/19 07:53:13;;;;;;;3.20;2.10;;;;;;;25.43;52.39;99948.77;92905;1206;78642;-67
2021/08/19 07:55:20;;;;;;;3.20;2.30;;;;;;;25.57;52.08;99953.13;92904;1206;81158;-63
2021/08/19 07:57:28;;;;;;;3.60;2.20;;;;;;;25.81;51.51;99950.73;92918;1206;99277;-64
2021/08/19 07:59:44;;;;;;;2.50;2.10;;;;;;;27.03;51.18;99948.23;92918;1206;87319;-64
2021/08/19 08:01:52;;;;;;;2.80;2.20;;;;;;;28.45;49.58;99946.67;92899;1206;94474;-65
2021/08/19 08:03:59;;;;;;;2.80;1.80;;;;;;;29.21;48.25;99943.83;92910;1206;79154;-65
2021/08/19 08:06:07;;;;;;;2.00;1.80;;;;;;;30.11;47.47;99938.79;92957;1206;81185;-64
2021/08/19 08:08:17;;;;;;;2.30;1.90;;;;;;;30.30;45.78;99941.23;92927;1206;98242;-64
2021/08/19 08:10:25;;;;;;;2.00;1.80;;;;;;;30.08;45.46;99941.90;92944;1206;88292;-64
2021/08/19 08:12:33;;;;;;;2.30;1.80;;;;;;;30.10;44.96;99947.85;92878;1206;94663;-64
2021/08/19 08:14:40;;;;;;;3.70;2.20;;;;;;;29.52;44.48;99949.30;92901;1206;79918;-64
2021/08/19 08:16:48;;;;;;;7.00;2.90;;;;;;;28.95;44.74;99950.87;92933;1206;82115;-65
2021/08/19 08:18:55;;;;;;;5.00;2.80;;;;;;;28.35;44.95;99951.88;92894;1206;99092;-65
2021/08/19 08:21:03;;;;;;;3.20;2.30;;;;;;;27.84;45.10;99956.27;92922;1206;89422;-65
2021/08/19 08:23:12;;;;;;;4.30;2.40;;;;;;;27.40;46.03;99954.56;92917;1206;93741;-66
2021/08/19 08:25:19;;;;;;;2.70;2.40;;;;;;;27.31;46.47;99955.02;92919;1206;79365;-65
2021/08/19 08:27:27;;;;;;;3.20;2.50;;;;;;;27.19;46.93;99957.16;92899;1206;82302;-64
2021/08/19 08:29:39;;;;;;;3.30;2.60;;;;;;;26.97;46.94;99960.13;92917;1206;98036;-65
2021/08/19 08:31:46;;;;;;;2.80;2.50;;;;;;;26.53;46.88;99958.27;92902;1206;87377;-66
2021/08/19 08:33:54;;;;;;;4.70;2.80;;;;;;;26.04;47.45;99957.24;92892;1206;94457;-66
2021/08/19 08:36:02;;;;;;;3.70;2.60;;;;;;;25.57;47.82;99960.21;92844;1209;77960;-69
2021/08/19 08:38:14;;;;;;;3.80;2.50;;;;;;;25.29;48.29;99958.59;92947;1206;83032;-69
2021/08/19 08:40:23;;;;;;;4.50;2.70;;;;;;;25.20;48.79;99961.03;92915;1206;99678;-69
2021/08/19 08:42:32;;;;;;;3.50;2.50;;;;;;;25.16;48.97;99965.00;92928;1206;86460;-69
2021/08/19 08:44:43;;;;;;;3.60;2.30;;;;;;;25.03;48.95;99965.67;92933;1206;94679;-68
2021/08/19 08:46:54;;;;;;;3.60;2.80;;;;;;;24.90;49.13;99969.41;92890;1206;78524;-68
2021/08/19 08:49:02;;;;;;;4.80;2.90;;;;;;;24.71;49.64;99969.92;92920;1206;81819;-68
2021/08/19 08:51:10;;;;;;;5.70;3.60;;;;;;;24.52;49.75;99970.23;92935;1207;100014;-69
2021/08/19 08:53:19;;;;;;;6.00;3.00;;;;;;;24.44;50.17;99972.52;92903;1206;88270;-68
2021/08/19 08:55:27;;;;;;;3.70;3.00;;;;;;;24.37;50.54;99975.84;92902;1206;94300;-68
2021/08/19 08:57:38;;;;;;;4.10;3.20;;;;;;;24.35;50.95;99975.19;92892;1206;80184;-67
2021/08/19 08:59:45;;;;;;;4.50;3.00;;;;;;;24.32;50.87;99982.67;92918;1206;82131;-70
2021/08/19 09:01:57;;;;;;;4.00;3.10;;;;;;;24.20;51.06;99985.92;92892;1206;97961;-68
2021/08/19 09:04:06;;;;;;;5.00;3.30;;;;;;;24.18;51.08;99987.00;92934;1206;88251;-71
2021/08/19 09:06:34;;;;;;;6.20;3.50;;;;;;;24.21;51.61;99990.19;92937;1206;94520;-71
2021/08/19 09:08:53;;;;;;;5.30;3.00;;;;;;;24.31;51.67;99987.83;92895;1206;78467;-66
2021/08/19 09:11:04;;;;;;;3.60;3.20;;;;;;;24.40;51.60;99980.66;92974;1206;81822;-67
2021/08/19 09:13:15;;;;;;;3.80;3.30;;;;;;;24.40;51.94;99978.14;92928;1206;99677;-67
2021/08/19 09:15:26;;;;;;;4.20;2.90;;;;;;;24.31;52.39;99977.84;92936;1206;88569;-66
2021/08/19 09:17:49;;;;;;;4.20;3.40;;;;;;;24.15;52.29;99981.55;92934;1206;92994;-66
2021/08/19 09:20:09;;;;;;;4.80;3.30;;;;;;;23.96;52.34;99978.52;92930;1206;79241;-65
2021/08/19 09:22:16;;;;;;;5.70;3.60;;;;;;;23.76;52.49;99974.09;92934;1206;80378;-68
2021/08/19 09:24:27;;;;;;;4.80;3.20;;;;;;;23.79;53.28;99975.66;92938;1206;98558;-68
2021/08/19 09:26:34;;;;;;;5.00;3.30;;;;;;;24.57;53.70;99970.35;92911;1206;86359;-68
2021/08/19 09:28:41;;;;;;;4.60;3.10;;;;;;;25.24;52.94;99964.73;92920;1206;94211;-66
2021/08/19 09:30:56;;;;;;;4.80;3.30;;;;;;;25.67;52.59;99967.59;92885;1206;79652;-69
2021/08/19 09:33:07;;;;;;;4.80;3.00;;;;;;;26.03;51.89;99963.34;92954;1200;80777;-68
2021/08/19 09:35:17;;;;;;;4.60;2.70;;;;;;;26.27;50.72;99966.11;92934;1206;98209;-69
2021/08/19 09:37:26;;;;;;;3.00;2.70;;;;;;;26.41;50.03;99965.38;92922;1206;87937;-69
2021/08/19 09:39:40;;;;;;;4.70;3.10;;;;;;;26.42;49.73;99960.20;92954;1206;94188;-68
2021/08/19 09:41:55;;;;;;;6.00;3.50;;;;;;;26.31;49.48;99965.33;92893;1206;79516;-68
2021/08/19 09:44:03;;;;;;;2.90;2.70;;;;;;;25.96;49.30;99963.89;92923;1199;80504;-68
2021/08/19 09:46:14;;;;;;;3.40;3.00;;;;;;;25.59;49.33;99965.27;92919;1206;99157;-70
2021/08/19 09:48:29;;;;;;;3.50;2.60;;;;;;;25.35;49.44;99967.30;92931;1206;89032;-70
2021/08/19 09:50:40;;;;;;;3.50;2.70;;;;;;;25.35;49.85;99966.48;92893;1206;94754;-64
2021/08/19 09:52:51;;;;;;;3.50;3.20;;;;;;;25.31;50.00;99966.47;92912;1206;78430;-65
2021/08/19 09:54:58;;;;;;;3.90;3.20;;;;;;;25.10;50.15;99964.91;92949;1206;80065;-68
2021/08/19 09:57:08;;;;;;;4.40;3.00;;;;;;;24.88;50.42;99962.63;92960;1206;98957;-64
2021/08/19 09:59:24;;;;;;;3.30;2.80;;;;;;;24.92;51.10;99964.63;92944;1206;87127;-65
2021/08/19 10:01:31;;;;;;;4.30;2.60;;;;;;;25.23;51.31;99963.48;92942;1206;91938;-66
2021/08/19 10:03:39;;;;;;;3.10;2.70;;;;;;;25.39;51.45;99963.11;92914;1206;77523;-65
2021/08/19 10:05:46;;;;;;;4.10;2.90;;;;;;;25.52;51.34;99961.17;92929;1206;83027;-63